sensor_id;sensor_type;location;lat;lon;timestamp;temperature;humidity
13440;DHT22;6792;57.698;11.946;2023-07-29T00:00:09;22.90;51.10
13440;DHT22;6792;57.698;11.946;2023-07-29T00:02:39;22.90;51.10
13440;DHT22;6792;57.698;11.946;2023-07-29T00:05:09;22.90;51.20
13440;DHT22;6792;57.698;11.946;2023-07-29T00:07:38;22.90;51.20
13440;DHT22;6792;57.698;11.946;2023-07-29T00:10:09;22.90;51.20
13440;DHT22;6792;57.698;11.946;2023-07-29T00:12:38;22.90;51.20
13440;DHT22;6792;57.698;11.946;2023-07-29T00:15:09;22.90;51.30
13440;DHT22;6792;57.698;11.946;2023-07-29T00:17:38;22.90;51.40
13440;DHT22;6792;57.698;11.946;2023-07-29T00:20:09;22.90;51.40
13440;DHT22;6792;57.698;11.946;2023-07-29T00:22:38;22.90;51.40
13440;DHT22;6792;57.698;11.946;2023-07-29T00:25:08;22.90;51.50
13440;DHT22;6792;57.698;11.946;2023-07-29T00:27:37;22.90;51.40
13440;DHT22;6792;57.698;11.946;2023-07-29T00:30:10;22.90;51.50
13440;DHT22;6792;57.698;11.946;2023-07-29T00:32:40;22.90;51.50
13440;DHT22;6792;57.698;11.946;2023-07-29T00:35:09;22.90;51.60
13440;DHT22;6792;57.698;11.946;2023-07-29T00:37:39;22.90;51.60
13440;DHT22;6792;57.698;11.946;2023-07-29T00:40:14;23.00;51.60
13440;DHT22;6792;57.698;11.946;2023-07-29T00:42:44;23.00;51.60
13440;DHT22;6792;57.698;11.946;2023-07-29T00:45:13;23.00;51.70
13440;DHT22;6792;57.698;11.946;2023-07-29T00:47:43;23.00;51.70
13440;DHT22;6792;57.698;11.946;2023-07-29T00:50:14;22.90;51.80
13440;DHT22;6792;57.698;11.946;2023-07-29T00:52:43;22.90;51.80
13440;DHT22;6792;57.698;11.946;2023-07-29T00:55:13;22.90;51.80
13440;DHT22;6792;57.698;11.946;2023-07-29T00:57:42;22.90;51.90
13440;DHT22;6792;57.698;11.946;2023-07-29T01:00:14;22.90;51.40
13440;DHT22;6792;57.698;11.946;2023-07-29T01:02:44;22.90;51.90
13440;DHT22;6792;57.698;11.946;2023-07-29T01:05:14;22.90;52.00
13440;DHT22;6792;57.698;11.946;2023-07-29T01:07:49;22.90;51.90
13440;DHT22;6792;57.698;11.946;2023-07-29T01:10:26;22.90;52.00
13440;DHT22;6792;57.698;11.946;2023-07-29T01:12:58;22.90;52.00
13440;DHT22;6792;57.698;11.946;2023-07-29T01:15:31;22.90;52.10
13440;DHT22;6792;57.698;11.946;2023-07-29T01:18:04;22.80;52.10
13440;DHT22;6792;57.698;11.946;2023-07-29T01:20:35;22.80;52.10
13440;DHT22;6792;57.698;11.946;2023-07-29T01:23:05;22.80;52.20
13440;DHT22;6792;57.698;11.946;2023-07-29T01:25:34;22.80;52.10
13440;DHT22;6792;57.698;11.946;2023-07-29T01:28:03;22.80;52.10
13440;DHT22;6792;57.698;11.946;2023-07-29T01:30:37;22.80;52.10
13440;DHT22;6792;57.698;11.946;2023-07-29T01:33:08;22.80;51.60
13440;DHT22;6792;57.698;11.946;2023-07-29T01:35:41;22.80;52.10
13440;DHT22;6792;57.698;11.946;2023-07-29T01:38:13;22.80;52.20
13440;DHT22;6792;57.698;11.946;2023-07-29T01:40:43;22.70;52.20
13440;DHT22;6792;57.698;11.946;2023-07-29T01:43:13;22.70;52.10
13440;DHT22;6792;57.698;11.946;2023-07-29T01:45:43;22.70;52.10
13440;DHT22;6792;57.698;11.946;2023-07-29T01:48:12;22.70;52.10
13440;DHT22;6792;57.698;11.946;2023-07-29T01:50:41;22.70;52.10
13440;DHT22;6792;57.698;11.946;2023-07-29T01:53:10;22.70;52.70
13440;DHT22;6792;57.698;11.946;2023-07-29T01:55:40;22.70;52.10
13440;DHT22;6792;57.698;11.946;2023-07-29T01:58:09;22.70;52.10
13440;DHT22;6792;57.698;11.946;2023-07-29T02:00:38;22.70;52.20
13440;DHT22;6792;57.698;11.946;2023-07-29T02:03:08;22.70;52.20
13440;DHT22;6792;57.698;11.946;2023-07-29T02:05:37;22.70;52.20
13440;DHT22;6792;57.698;11.946;2023-07-29T02:08:06;22.70;52.20
13440;DHT22;6792;57.698;11.946;2023-07-29T02:10:35;22.70;52.10
13440;DHT22;6792;57.698;11.946;2023-07-29T02:13:05;22.70;52.10
13440;DHT22;6792;57.698;11.946;2023-07-29T02:15:34;22.70;51.60
13440;DHT22;6792;57.698;11.946;2023-07-29T02:18:03;22.70;52.10
13440;DHT22;6792;57.698;11.946;2023-07-29T02:20:34;22.60;52.10
13440;DHT22;6792;57.698;11.946;2023-07-29T02:23:03;22.60;52.10
13440;DHT22;6792;57.698;11.946;2023-07-29T02:25:35;22.60;51.60
13440;DHT22;6792;57.698;11.946;2023-07-29T02:28:04;22.60;52.20
13440;DHT22;6792;57.698;11.946;2023-07-29T02:30:33;22.60;52.20
13440;DHT22;6792;57.698;11.946;2023-07-29T02:33:03;22.50;52.20
13440;DHT22;6792;57.698;11.946;2023-07-29T02:35:32;22.50;52.20
13440;DHT22;6792;57.698;11.946;2023-07-29T02:38:01;22.40;52.20
13440;DHT22;6792;57.698;11.946;2023-07-29T02:40:30;22.40;52.20
13440;DHT22;6792;57.698;11.946;2023-07-29T02:42:59;22.30;52.30
13440;DHT22;6792;57.698;11.946;2023-07-29T02:45:29;22.30;52.30
13440;DHT22;6792;57.698;11.946;2023-07-29T02:47:58;22.30;52.90
13440;DHT22;6792;57.698;11.946;2023-07-29T02:50:27;22.30;52.40
13440;DHT22;6792;57.698;11.946;2023-07-29T02:52:56;22.30;52.90
13440;DHT22;6792;57.698;11.946;2023-07-29T02:55:26;22.30;52.30
13440;DHT22;6792;57.698;11.946;2023-07-29T02:57:55;22.30;52.30
13440;DHT22;6792;57.698;11.946;2023-07-29T03:00:24;22.30;52.30
13440;DHT22;6792;57.698;11.946;2023-07-29T03:02:53;22.30;52.40
13440;DHT22;6792;57.698;11.946;2023-07-29T03:05:23;22.30;52.40
13440;DHT22;6792;57.698;11.946;2023-07-29T03:07:52;22.20;52.30
13440;DHT22;6792;57.698;11.946;2023-07-29T03:10:21;22.20;52.40
13440;DHT22;6792;57.698;11.946;2023-07-29T03:12:54;22.20;52.40
13440;DHT22;6792;57.698;11.946;2023-07-29T03:15:25;22.20;52.40
13440;DHT22;6792;57.698;11.946;2023-07-29T03:17:54;22.20;52.50
13440;DHT22;6792;57.698;11.946;2023-07-29T03:20:23;22.20;52.50
13440;DHT22;6792;57.698;11.946;2023-07-29T03:22:53;22.20;52.50
13440;DHT22;6792;57.698;11.946;2023-07-29T03:25:22;22.20;52.60
13440;DHT22;6792;57.698;11.946;2023-07-29T03:27:51;22.20;52.60
13440;DHT22;6792;57.698;11.946;2023-07-29T03:30:21;22.10;52.70
13440;DHT22;6792;57.698;11.946;2023-07-29T03:32:51;22.10;52.60
13440;DHT22;6792;57.698;11.946;2023-07-29T03:35:22;22.10;52.60
13440;DHT22;6792;57.698;11.946;2023-07-29T03:37:51;22.10;52.60
13440;DHT22;6792;57.698;11.946;2023-07-29T03:40:22;22.10;52.70
13440;DHT22;6792;57.698;11.946;2023-07-29T03:42:54;22.10;52.60
13440;DHT22;6792;57.698;11.946;2023-07-29T03:45:23;22.10;52.70
13440;DHT22;6792;57.698;11.946;2023-07-29T03:47:53;22.10;52.70
13440;DHT22;6792;57.698;11.946;2023-07-29T03:50:22;22.10;52.70
13440;DHT22;6792;57.698;11.946;2023-07-29T03:52:52;22.10;52.80
13440;DHT22;6792;57.698;11.946;2023-07-29T03:55:21;22.10;52.80
13440;DHT22;6792;57.698;11.946;2023-07-29T03:57:59;22.10;52.80
13440;DHT22;6792;57.698;11.946;2023-07-29T04:00:29;22.10;53.50
13440;DHT22;6792;57.698;11.946;2023-07-29T04:02:58;22.00;52.40
13440;DHT22;6792;57.698;11.946;2023-07-29T04:05:27;22.10;52.90
13440;DHT22;6792;57.698;11.946;2023-07-29T04:07:56;22.10;52.40
13440;DHT22;6792;57.698;11.946;2023-07-29T04:10:25;22.10;52.90
13440;DHT22;6792;57.698;11.946;2023-07-29T04:12:54;22.10;52.90
13440;DHT22;6792;57.698;11.946;2023-07-29T04:15:24;22.10;52.90
13440;DHT22;6792;57.698;11.946;2023-07-29T04:17:53;22.10;52.80
13440;DHT22;6792;57.698;11.946;2023-07-29T04:20:22;22.10;52.90
13440;DHT22;6792;57.698;11.946;2023-07-29T04:22:51;22.10;52.90
13440;DHT22;6792;57.698;11.946;2023-07-29T04:25:20;22.10;52.90
13440;DHT22;6792;57.698;11.946;2023-07-29T04:27:52;22.20;52.30
13440;DHT22;6792;57.698;11.946;2023-07-29T04:30:22;22.20;52.80
13440;DHT22;6792;57.698;11.946;2023-07-29T04:32:51;22.20;52.80
13440;DHT22;6792;57.698;11.946;2023-07-29T04:35:20;22.20;52.70
13440;DHT22;6792;57.698;11.946;2023-07-29T04:37:50;22.20;52.70
13440;DHT22;6792;57.698;11.946;2023-07-29T04:40:19;22.30;52.70
13440;DHT22;6792;57.698;11.946;2023-07-29T04:42:48;22.30;52.70
13440;DHT22;6792;57.698;11.946;2023-07-29T04:45:17;22.30;52.70
13440;DHT22;6792;57.698;11.946;2023-07-29T04:47:47;22.30;52.70
13440;DHT22;6792;57.698;11.946;2023-07-29T04:50:16;22.30;52.70
13440;DHT22;6792;57.698;11.946;2023-07-29T04:52:45;22.40;52.80
13440;DHT22;6792;57.698;11.946;2023-07-29T04:55:15;22.40;52.80
13440;DHT22;6792;57.698;11.946;2023-07-29T04:57:44;22.40;53.00
13440;DHT22;6792;57.698;11.946;2023-07-29T05:00:13;22.40;52.80
13440;DHT22;6792;57.698;11.946;2023-07-29T05:02:43;22.40;53.40
13440;DHT22;6792;57.698;11.946;2023-07-29T05:05:12;22.40;52.80
13440;DHT22;6792;57.698;11.946;2023-07-29T05:07:41;22.40;52.30
13440;DHT22;6792;57.698;11.946;2023-07-29T05:10:11;22.40;52.80
13440;DHT22;6792;57.698;11.946;2023-07-29T05:12:40;22.50;52.80
13440;DHT22;6792;57.698;11.946;2023-07-29T05:15:10;22.50;52.80
13440;DHT22;6792;57.698;11.946;2023-07-29T05:17:40;22.50;53.40
13440;DHT22;6792;57.698;11.946;2023-07-29T05:20:10;22.50;52.80
13440;DHT22;6792;57.698;11.946;2023-07-29T05:22:40;22.50;52.90
13440;DHT22;6792;57.698;11.946;2023-07-29T05:25:09;22.60;52.80
13440;DHT22;6792;57.698;11.946;2023-07-29T05:27:38;22.60;52.70
13440;DHT22;6792;57.698;11.946;2023-07-29T05:30:09;22.60;52.70
13440;DHT22;6792;57.698;11.946;2023-07-29T05:32:38;22.70;52.70
13440;DHT22;6792;57.698;11.946;2023-07-29T05:35:08;22.70;52.60
13440;DHT22;6792;57.698;11.946;2023-07-29T05:37:39;22.70;52.60
13440;DHT22;6792;57.698;11.946;2023-07-29T05:40:09;22.80;52.70
13440;DHT22;6792;57.698;11.946;2023-07-29T05:42:38;22.80;52.60
13440;DHT22;6792;57.698;11.946;2023-07-29T05:45:10;22.90;52.60
13440;DHT22;6792;57.698;11.946;2023-07-29T05:47:39;22.90;52.50
13440;DHT22;6792;57.698;11.946;2023-07-29T05:50:10;22.90;52.40
13440;DHT22;6792;57.698;11.946;2023-07-29T05:52:39;23.00;52.40
13440;DHT22;6792;57.698;11.946;2023-07-29T05:55:09;23.00;52.30
13440;DHT22;6792;57.698;11.946;2023-07-29T05:57:38;23.00;52.20
13440;DHT22;6792;57.698;11.946;2023-07-29T06:00:09;23.10;52.20
13440;DHT22;6792;57.698;11.946;2023-07-29T06:02:38;23.10;52.10
13440;DHT22;6792;57.698;11.946;2023-07-29T06:05:09;23.10;51.40
13440;DHT22;6792;57.698;11.946;2023-07-29T06:07:38;23.20;51.90
13440;DHT22;6792;57.698;11.946;2023-07-29T06:10:10;23.20;51.80
13440;DHT22;6792;57.698;11.946;2023-07-29T06:12:39;23.20;51.70
13440;DHT22;6792;57.698;11.946;2023-07-29T06:15:10;23.30;51.70
13440;DHT22;6792;57.698;11.946;2023-07-29T06:17:39;23.30;51.50
13440;DHT22;6792;57.698;11.946;2023-07-29T06:20:10;23.30;51.40
13440;DHT22;6792;57.698;11.946;2023-07-29T06:22:40;23.40;51.40
13440;DHT22;6792;57.698;11.946;2023-07-29T06:25:10;23.40;51.30
13440;DHT22;6792;57.698;11.946;2023-07-29T06:27:39;23.50;51.30
13440;DHT22;6792;57.698;11.946;2023-07-29T06:30:09;23.60;51.20
13440;DHT22;6792;57.698;11.946;2023-07-29T06:32:38;23.60;51.10
13440;DHT22;6792;57.698;11.946;2023-07-29T06:35:08;23.60;51.00
13440;DHT22;6792;57.698;11.946;2023-07-29T06:37:37;23.70;51.00
13440;DHT22;6792;57.698;11.946;2023-07-29T06:40:09;23.70;50.90
13440;DHT22;6792;57.698;11.946;2023-07-29T06:42:38;23.80;50.80
13440;DHT22;6792;57.698;11.946;2023-07-29T06:45:09;23.80;50.70
13440;DHT22;6792;57.698;11.946;2023-07-29T06:47:38;23.90;50.70
13440;DHT22;6792;57.698;11.946;2023-07-29T06:50:08;23.90;50.50
13440;DHT22;6792;57.698;11.946;2023-07-29T06:52:38;24.00;50.40
13440;DHT22;6792;57.698;11.946;2023-07-29T06:55:08;24.00;50.30
13440;DHT22;6792;57.698;11.946;2023-07-29T06:57:38;24.00;50.30
13440;DHT22;6792;57.698;11.946;2023-07-29T07:00:09;24.10;50.30
13440;DHT22;6792;57.698;11.946;2023-07-29T07:02:38;24.10;50.10
13440;DHT22;6792;57.698;11.946;2023-07-29T07:05:08;24.10;50.00
13440;DHT22;6792;57.698;11.946;2023-07-29T07:07:37;24.20;49.90
13440;DHT22;6792;57.698;11.946;2023-07-29T07:10:08;24.20;49.90
13440;DHT22;6792;57.698;11.946;2023-07-29T07:12:37;24.20;49.80
13440;DHT22;6792;57.698;11.946;2023-07-29T07:15:08;24.30;49.80
13440;DHT22;6792;57.698;11.946;2023-07-29T07:17:38;24.30;49.20
13440;DHT22;6792;57.698;11.946;2023-07-29T07:20:09;24.30;49.70
13440;DHT22;6792;57.698;11.946;2023-07-29T07:22:38;24.40;49.70
13440;DHT22;6792;57.698;11.946;2023-07-29T07:25:08;24.40;49.70
13440;DHT22;6792;57.698;11.946;2023-07-29T07:27:38;24.40;49.60
13440;DHT22;6792;57.698;11.946;2023-07-29T07:30:09;24.40;49.50
13440;DHT22;6792;57.698;11.946;2023-07-29T07:32:39;24.40;49.50
13440;DHT22;6792;57.698;11.946;2023-07-29T07:35:09;24.50;49.50
13440;DHT22;6792;57.698;11.946;2023-07-29T07:37:38;24.50;48.90
13440;DHT22;6792;57.698;11.946;2023-07-29T07:40:09;24.50;49.50
13440;DHT22;6792;57.698;11.946;2023-07-29T07:42:38;24.60;49.50
13440;DHT22;6792;57.698;11.946;2023-07-29T07:45:07;24.60;49.40
13440;DHT22;6792;57.698;11.946;2023-07-29T07:47:37;24.70;49.40
13440;DHT22;6792;57.698;11.946;2023-07-29T07:50:07;24.70;49.40
13440;DHT22;6792;57.698;11.946;2023-07-29T07:52:36;24.80;49.30
13440;DHT22;6792;57.698;11.946;2023-07-29T07:55:07;24.80;49.30
13440;DHT22;6792;57.698;11.946;2023-07-29T07:57:36;24.80;49.40
13440;DHT22;6792;57.698;11.946;2023-07-29T08:00:08;24.90;49.30
13440;DHT22;6792;57.698;11.946;2023-07-29T08:02:38;24.90;49.20
13440;DHT22;6792;57.698;11.946;2023-07-29T08:05:08;25.00;49.20
13440;DHT22;6792;57.698;11.946;2023-07-29T08:07:37;25.00;49.10
13440;DHT22;6792;57.698;11.946;2023-07-29T08:10:08;25.00;49.10
13440;DHT22;6792;57.698;11.946;2023-07-29T08:12:38;25.00;49.10
13440;DHT22;6792;57.698;11.946;2023-07-29T08:15:08;25.00;49.00
13440;DHT22;6792;57.698;11.946;2023-07-29T08:17:37;25.00;49.10
13440;DHT22;6792;57.698;11.946;2023-07-29T08:20:08;25.00;49.00
13440;DHT22;6792;57.698;11.946;2023-07-29T08:22:37;25.00;49.00
13440;DHT22;6792;57.698;11.946;2023-07-29T08:25:08;25.00;49.00
13440;DHT22;6792;57.698;11.946;2023-07-29T08:27:37;25.10;49.10
13440;DHT22;6792;57.698;11.946;2023-07-29T08:30:09;25.10;49.10
13440;DHT22;6792;57.698;11.946;2023-07-29T08:32:38;25.10;49.10
13440;DHT22;6792;57.698;11.946;2023-07-29T08:35:08;25.10;49.10
13440;DHT22;6792;57.698;11.946;2023-07-29T08:37:37;25.20;49.10
13440;DHT22;6792;57.698;11.946;2023-07-29T08:40:09;25.20;49.10
13440;DHT22;6792;57.698;11.946;2023-07-29T08:42:39;25.20;49.20
13440;DHT22;6792;57.698;11.946;2023-07-29T08:45:10;25.20;48.70
13440;DHT22;6792;57.698;11.946;2023-07-29T08:47:40;25.30;49.30
13440;DHT22;6792;57.698;11.946;2023-07-29T08:50:10;25.30;49.50
13440;DHT22;6792;57.698;11.946;2023-07-29T08:52:40;25.30;49.30
13440;DHT22;6792;57.698;11.946;2023-07-29T08:55:10;25.40;49.30
13440;DHT22;6792;57.698;11.946;2023-07-29T08:57:39;25.40;49.40
13440;DHT22;6792;57.698;11.946;2023-07-29T09:00:11;25.40;49.30
13440;DHT22;6792;57.698;11.946;2023-07-29T09:02:40;25.40;49.30
13440;DHT22;6792;57.698;11.946;2023-07-29T09:05:10;25.40;49.90
13440;DHT22;6792;57.698;11.946;2023-07-29T09:07:39;25.40;49.30
13440;DHT22;6792;57.698;11.946;2023-07-29T09:10:11;25.40;49.30
13440;DHT22;6792;57.698;11.946;2023-07-29T09:12:41;25.40;49.40
13440;DHT22;6792;57.698;11.946;2023-07-29T09:15:11;25.40;49.30
13440;DHT22;6792;57.698;11.946;2023-07-29T09:17:41;25.50;49.40
13440;DHT22;6792;57.698;11.946;2023-07-29T09:20:12;25.50;49.40
13440;DHT22;6792;57.698;11.946;2023-07-29T09:22:41;25.50;49.40
13440;DHT22;6792;57.698;11.946;2023-07-29T09:25:13;25.50;49.40
13440;DHT22;6792;57.698;11.946;2023-07-29T09:27:44;25.60;49.50
13440;DHT22;6792;57.698;11.946;2023-07-29T09:30:17;25.60;49.50
13440;DHT22;6792;57.698;11.946;2023-07-29T09:32:46;25.70;49.50
13440;DHT22;6792;57.698;11.946;2023-07-29T09:35:15;25.70;49.50
13440;DHT22;6792;57.698;11.946;2023-07-29T09:37:45;25.80;49.40
13440;DHT22;6792;57.698;11.946;2023-07-29T09:40:17;25.90;49.50
13440;DHT22;6792;57.698;11.946;2023-07-29T09:45:32;25.90;48.80
13440;DHT22;6792;57.698;11.946;2023-07-29T09:48:02;26.00;49.40
13440;DHT22;6792;57.698;11.946;2023-07-29T09:50:32;26.10;49.40
13440;DHT22;6792;57.698;11.946;2023-07-29T09:53:03;26.10;49.40
13440;DHT22;6792;57.698;11.946;2023-07-29T09:55:34;26.20;49.40
13440;DHT22;6792;57.698;11.946;2023-07-29T09:58:03;26.30;49.40
13440;DHT22;6792;57.698;11.946;2023-07-29T10:00:34;26.30;48.80
13440;DHT22;6792;57.698;11.946;2023-07-29T10:03:05;26.40;48.80
13440;DHT22;6792;57.698;11.946;2023-07-29T10:05:35;26.50;49.40
13440;DHT22;6792;57.698;11.946;2023-07-29T10:08:06;26.60;48.80
13440;DHT22;6792;57.698;11.946;2023-07-29T10:10:35;26.70;48.80
13440;DHT22;6792;57.698;11.946;2023-07-29T10:13:05;26.70;49.20
13440;DHT22;6792;57.698;11.946;2023-07-29T10:15:35;26.70;48.50
13440;DHT22;6792;57.698;11.946;2023-07-29T10:18:06;26.70;49.00
13440;DHT22;6792;57.698;11.946;2023-07-29T10:20:36;26.80;49.10
13440;DHT22;6792;57.698;11.946;2023-07-29T10:23:07;26.80;49.10
13440;DHT22;6792;57.698;11.946;2023-07-29T10:25:40;26.80;48.60
13440;DHT22;6792;57.698;11.946;2023-07-29T10:28:11;26.80;49.20
13440;DHT22;6792;57.698;11.946;2023-07-29T10:30:42;26.80;49.10
13440;DHT22;6792;57.698;11.946;2023-07-29T10:33:11;26.70;48.50
13440;DHT22;6792;57.698;11.946;2023-07-29T10:35:41;26.70;49.10
13440;DHT22;6792;57.698;11.946;2023-07-29T10:38:10;26.70;48.60
13440;DHT22;6792;57.698;11.946;2023-07-29T10:40:47;26.70;49.20
13440;DHT22;6792;57.698;11.946;2023-07-29T10:43:24;26.80;49.20
13440;DHT22;6792;57.698;11.946;2023-07-29T10:45:52;26.70;49.20
13440;DHT22;6792;57.698;11.946;2023-07-29T10:51:35;26.60;48.80
13440;DHT22;6792;57.698;11.946;2023-07-29T10:54:10;26.50;49.60
13440;DHT22;6792;57.698;11.946;2023-07-29T10:56:39;26.50;49.80
13440;DHT22;6792;57.698;11.946;2023-07-29T10:59:32;26.50;50.10
13440;DHT22;6792;57.698;11.946;2023-07-29T11:02:03;26.50;50.30
13440;DHT22;6792;57.698;11.946;2023-07-29T11:04:37;26.50;50.20
13440;DHT22;6792;57.698;11.946;2023-07-29T11:07:23;26.50;50.20
13440;DHT22;6792;57.698;11.946;2023-07-29T11:10:00;26.60;50.10
13440;DHT22;6792;57.698;11.946;2023-07-29T11:12:41;26.60;50.10
13440;DHT22;6792;57.698;11.946;2023-07-29T11:15:15;26.60;49.90
13440;DHT22;6792;57.698;11.946;2023-07-29T11:17:46;26.50;49.30
13440;DHT22;6792;57.698;11.946;2023-07-29T11:20:17;26.70;49.70
13440;DHT22;6792;57.698;11.946;2023-07-29T11:22:46;26.70;49.50
13440;DHT22;6792;57.698;11.946;2023-07-29T11:25:17;26.80;49.40
13440;DHT22;6792;57.698;11.946;2023-07-29T11:27:48;26.80;49.30
13440;DHT22;6792;57.698;11.946;2023-07-29T11:30:18;26.90;49.20
13440;DHT22;6792;57.698;11.946;2023-07-29T11:32:47;26.90;49.10
13440;DHT22;6792;57.698;11.946;2023-07-29T11:35:17;27.00;49.00
13440;DHT22;6792;57.698;11.946;2023-07-29T11:37:48;27.00;48.90
13440;DHT22;6792;57.698;11.946;2023-07-29T11:40:22;27.10;48.90
13440;DHT22;6792;57.698;11.946;2023-07-29T11:42:52;27.00;49.40
13440;DHT22;6792;57.698;11.946;2023-07-29T11:45:22;27.10;49.50
13440;DHT22;6792;57.698;11.946;2023-07-29T11:47:51;27.10;48.90
13440;DHT22;6792;57.698;11.946;2023-07-29T11:50:23;27.20;48.30
13440;DHT22;6792;57.698;11.946;2023-07-29T11:52:53;27.20;48.70
13440;DHT22;6792;57.698;11.946;2023-07-29T11:55:22;27.20;48.70
13440;DHT22;6792;57.698;11.946;2023-07-29T11:57:53;27.30;49.30
13440;DHT22;6792;57.698;11.946;2023-07-29T12:00:22;27.50;48.70
13440;DHT22;6792;57.698;11.946;2023-07-29T12:02:52;27.60;48.60
13440;DHT22;6792;57.698;11.946;2023-07-29T12:05:22;27.70;48.40
13440;DHT22;6792;57.698;11.946;2023-07-29T12:07:52;27.90;48.30
13440;DHT22;6792;57.698;11.946;2023-07-29T12:10:22;28.00;48.20
13440;DHT22;6792;57.698;11.946;2023-07-29T12:12:51;28.10;47.20
13440;DHT22;6792;57.698;11.946;2023-07-29T12:15:27;28.20;47.40
13440;DHT22;6792;57.698;11.946;2023-07-29T12:17:58;28.30;47.10
13440;DHT22;6792;57.698;11.946;2023-07-29T12:20:28;28.30;46.90
13440;DHT22;6792;57.698;11.946;2023-07-29T12:22:59;28.40;46.70
13440;DHT22;6792;57.698;11.946;2023-07-29T12:25:30;28.50;46.30
13440;DHT22;6792;57.698;11.946;2023-07-29T12:28:04;28.70;46.00
13440;DHT22;6792;57.698;11.946;2023-07-29T12:30:34;28.80;45.70
13440;DHT22;6792;57.698;11.946;2023-07-29T12:33:03;29.00;45.50
13440;DHT22;6792;57.698;11.946;2023-07-29T12:35:38;29.20;45.40
13440;DHT22;6792;57.698;11.946;2023-07-29T12:38:07;29.30;45.10
13440;DHT22;6792;57.698;11.946;2023-07-29T12:40:38;29.40;44.50
13440;DHT22;6792;57.698;11.946;2023-07-29T12:43:09;29.50;44.80
13440;DHT22;6792;57.698;11.946;2023-07-29T12:45:39;29.70;44.60
13440;DHT22;6792;57.698;11.946;2023-07-29T12:48:09;29.70;44.30
13440;DHT22;6792;57.698;11.946;2023-07-29T12:50:39;29.80;44.00
13440;DHT22;6792;57.698;11.946;2023-07-29T12:53:09;29.90;43.80
13440;DHT22;6792;57.698;11.946;2023-07-29T12:55:41;29.90;43.60
13440;DHT22;6792;57.698;11.946;2023-07-29T12:58:10;30.00;43.60
13440;DHT22;6792;57.698;11.946;2023-07-29T13:00:39;30.10;43.50
13440;DHT22;6792;57.698;11.946;2023-07-29T13:03:08;30.20;43.30
13440;DHT22;6792;57.698;11.946;2023-07-29T13:05:38;30.40;43.20
13440;DHT22;6792;57.698;11.946;2023-07-29T13:08:07;30.40;43.00
13440;DHT22;6792;57.698;11.946;2023-07-29T13:10:38;30.50;43.00
13440;DHT22;6792;57.698;11.946;2023-07-29T13:13:07;30.80;43.00
13440;DHT22;6792;57.698;11.946;2023-07-29T13:15:36;31.00;42.70
13440;DHT22;6792;57.698;11.946;2023-07-29T13:18:06;31.20;42.20
13440;DHT22;6792;57.698;11.946;2023-07-29T13:20:35;31.20;41.90
13440;DHT22;6792;57.698;11.946;2023-07-29T13:23:05;31.10;41.70
13440;DHT22;6792;57.698;11.946;2023-07-29T13:25:34;31.20;41.60
13440;DHT22;6792;57.698;11.946;2023-07-29T13:28:04;31.10;41.50
13440;DHT22;6792;57.698;11.946;2023-07-29T13:30:33;31.10;41.40
13440;DHT22;6792;57.698;11.946;2023-07-29T13:33:02;31.00;41.20
13440;DHT22;6792;57.698;11.946;2023-07-29T13:35:31;30.90;41.20
13440;DHT22;6792;57.698;11.946;2023-07-29T13:38:01;30.90;41.20
13440;DHT22;6792;57.698;11.946;2023-07-29T13:40:31;30.80;41.30
13440;DHT22;6792;57.698;11.946;2023-07-29T13:43:00;30.60;41.20
13440;DHT22;6792;57.698;11.946;2023-07-29T13:45:29;30.50;41.90
13440;DHT22;6792;57.698;11.946;2023-07-29T13:47:58;30.40;41.40
13440;DHT22;6792;57.698;11.946;2023-07-29T13:50:28;30.30;41.50
13440;DHT22;6792;57.698;11.946;2023-07-29T13:52:57;30.20;42.00
13440;DHT22;6792;57.698;11.946;2023-07-29T13:55:26;30.10;41.70
13440;DHT22;6792;57.698;11.946;2023-07-29T13:57:55;30.00;41.70
13440;DHT22;6792;57.698;11.946;2023-07-29T14:00:25;30.00;41.80
13440;DHT22;6792;57.698;11.946;2023-07-29T14:02:54;29.90;42.00
13440;DHT22;6792;57.698;11.946;2023-07-29T14:05:23;30.00;42.30
13440;DHT22;6792;57.698;11.946;2023-07-29T14:07:52;30.20;42.40
13440;DHT22;6792;57.698;11.946;2023-07-29T14:10:21;30.30;42.00
13440;DHT22;6792;57.698;11.946;2023-07-29T14:12:53;30.40;42.00
13440;DHT22;6792;57.698;11.946;2023-07-29T14:15:23;30.60;42.10
13440;DHT22;6792;57.698;11.946;2023-07-29T14:17:52;30.60;41.70
13440;DHT22;6792;57.698;11.946;2023-07-29T14:20:24;30.70;41.50
13440;DHT22;6792;57.698;11.946;2023-07-29T14:22:53;30.50;41.30
13440;DHT22;6792;57.698;11.946;2023-07-29T14:25:22;30.40;41.30
13440;DHT22;6792;57.698;11.946;2023-07-29T14:27:52;30.20;41.30
13440;DHT22;6792;57.698;11.946;2023-07-29T14:30:27;30.10;41.40
13440;DHT22;6792;57.698;11.946;2023-07-29T14:32:56;30.00;41.60
13440;DHT22;6792;57.698;11.946;2023-07-29T14:35:25;29.90;41.60
13440;DHT22;6792;57.698;11.946;2023-07-29T14:37:55;29.80;41.10
13440;DHT22;6792;57.698;11.946;2023-07-29T14:40:24;29.70;41.70
13440;DHT22;6792;57.698;11.946;2023-07-29T14:42:53;29.60;41.80
13440;DHT22;6792;57.698;11.946;2023-07-29T14:45:22;29.60;42.00
13440;DHT22;6792;57.698;11.946;2023-07-29T14:47:52;29.50;42.10
13440;DHT22;6792;57.698;11.946;2023-07-29T14:50:21;29.40;42.20
13440;DHT22;6792;57.698;11.946;2023-07-29T14:52:50;29.30;42.30
13440;DHT22;6792;57.698;11.946;2023-07-29T14:55:20;29.20;42.30
13440;DHT22;6792;57.698;11.946;2023-07-29T14:57:49;29.10;42.50
13440;DHT22;6792;57.698;11.946;2023-07-29T15:00:18;29.10;42.60
13440;DHT22;6792;57.698;11.946;2023-07-29T15:02:48;29.00;42.60
13440;DHT22;6792;57.698;11.946;2023-07-29T15:05:17;28.90;42.60
13440;DHT22;6792;57.698;11.946;2023-07-29T15:07:46;28.90;42.70
13440;DHT22;6792;57.698;11.946;2023-07-29T15:10:16;28.80;42.80
13440;DHT22;6792;57.698;11.946;2023-07-29T15:12:46;28.70;42.90
13440;DHT22;6792;57.698;11.946;2023-07-29T15:15:15;28.60;42.90
13440;DHT22;6792;57.698;11.946;2023-07-29T15:17:44;28.60;43.00
13440;DHT22;6792;57.698;11.946;2023-07-29T15:20:13;28.50;42.50
13440;DHT22;6792;57.698;11.946;2023-07-29T15:22:43;28.40;43.20
13440;DHT22;6792;57.698;11.946;2023-07-29T15:25:12;28.30;43.30
13440;DHT22;6792;57.698;11.946;2023-07-29T15:27:41;28.30;43.40
13440;DHT22;6792;57.698;11.946;2023-07-29T15:30:11;28.20;43.50
13440;DHT22;6792;57.698;11.946;2023-07-29T15:32:40;28.10;43.70
13440;DHT22;6792;57.698;11.946;2023-07-29T15:35:10;28.10;43.80
13440;DHT22;6792;57.698;11.946;2023-07-29T15:37:40;28.00;43.90
13440;DHT22;6792;57.698;11.946;2023-07-29T15:40:10;27.80;43.50
13440;DHT22;6792;57.698;11.946;2023-07-29T15:42:40;27.80;44.30
13440;DHT22;6792;57.698;11.946;2023-07-29T15:45:11;27.70;44.40
13440;DHT22;6792;57.698;11.946;2023-07-29T15:47:40;27.60;44.60
13440;DHT22;6792;57.698;11.946;2023-07-29T15:50:10;27.60;44.70
13440;DHT22;6792;57.698;11.946;2023-07-29T15:52:39;27.60;44.80